Latest Weather Observations for Campbelltown

IDN60901

Issued at 12:31 am EST Thursday 30 June 2016 (issued every 10 minutes, with the page automatically refreshed every 10 minutes)

About weather observations | Map of Sydney area stations | Latest observations for Sydney area | Other Formats
Station Details ID: 068257 Name: CAMPBELLTOWN (MOUNT ANNAN) Lat: -34.06 Lon: 150.77 Height: 112.0 m
Data from the previous 72 hours. | See also: Recent months at Campbelltown
Date/Time
EST
Temp
°C
App
Temp
°C
Dew
Point
°C
Rel
Hum
%
Delta-T
°C
Wind Press
QNH
hPa
Press
MSL
hPa
Rain since
9am
mm
Dir  Spd
km/h
Gust
km/h
Spd
kts
Gust
kts
30/12:30am 2.8 1.2 2.5 98 0.1 CALM 0 0 0 0 - - 0.0
30/12:00am 3.3 1.8 3.0 98 0.1 CALM 0 0 0 0 - - 0.0
 
Date/Time
EST
Temp
°C
App
Temp
°C
Dew
Point
°C
Rel
Hum
%
Delta-T
°C
Wind Press
QNH
hPa
Press
MSL
hPa
Rain since
9am
mm
Dir  Spd
km/h
Gust
km/h
Spd
kts
Gust
kts
29/11:30pm 3.4 1.9 2.8 96 0.2 CALM 0 0 0 0 - - 0.0
29/11:00pm 4.2 2.1 3.8 97 0.2 NE 4 7 2 4 - - 0.0
29/10:30pm 4.7 3.4 4.1 96 0.3 CALM 0 0 0 0 - - 0.0
29/10:00pm 5.1 3.8 4.2 94 0.4 CALM 0 0 0 0 - - 0.0
29/09:30pm 5.5 3.2 4.6 94 0.4 NNE 6 7 3 4 - - 0.0
29/09:00pm 5.8 3.5 4.9 94 0.4 NNE 6 7 3 4 - - 0.0
29/08:30pm 6.0 4.8 4.8 92 0.5 CALM 0 0 0 0 - - 0.0
29/08:00pm 6.2 5.0 4.5 89 0.7 CALM 0 0 0 0 - - 0.0
29/07:30pm 6.6 5.3 4.1 84 1.1 CALM 0 0 0 0 - - 0.0
29/07:00pm 7.6 6.5 5.2 85 1.1 CALM 0 0 0 0 - - 0.0
29/06:30pm 7.5 5.9 4.6 82 1.3 NNE 2 6 1 3 - - 0.0
29/06:00pm 8.3 5.7 3.4 71 2.1 NNE 6 7 3 4 - - 0.0
29/05:30pm 9.4 8.0 3.6 67 2.5 CALM 0 0 0 0 - - 0.0
29/05:00pm 11.5 10.1 3.8 59 3.4 CALM 0 0 0 0 - - 0.0
29/04:30pm 14.7 12.0 2.9 45 5.3 NNE 6 7 3 4 - - 0.0
29/04:00pm 16.9 13.7 1.0 34 7.0 NNE 7 11 4 6 - - 0.0
29/03:30pm 17.5 14.4 1.1 33 7.3 NNE 7 11 4 6 - - 0.0
29/03:00pm 17.8 14.3 1.3 33 7.4 N 9 13 5 7 - - 0.0
29/02:30pm 18.0 14.9 1.1 32 7.5 NNW 7 11 4 6 - - 0.0
29/02:00pm 18.0 15.0 1.1 32 7.5 NE 6 9 3 5 - - 0.0
29/01:30pm 17.4 14.2 0.6 32 7.4 N 7 13 4 7 - - 0.0
29/01:00pm 17.9 14.9 2.2 35 7.2 N 7 13 4 7 - - 0.0
29/12:30pm 16.7 13.9 3.1 40 6.3 NNW 7 11 4 6 - - 0.0
29/12:00pm 15.7 12.9 3.2 43 5.7 SW 7 11 4 6 - - 0.0
29/11:30am 14.7 12.1 4.4 50 4.8 SW 7 13 4 7 - - 0.0
29/11:00am 14.2 11.7 4.8 53 4.4 SW 7 13 4 7 - - 0.0
29/10:30am 12.9 10.3 4.3 56 3.9 SSW 7 11 4 6 - - 0.0
29/10:00am 10.9 8.2 3.5 60 3.3 WSW 7 11 4 6 - - 0.0
29/09:30am 9.3 6.9 4.1 70 2.3 WSW 6 9 3 5 - - 0.0
29/09:00am 8.0 6.0 6.3 89 0.8 SSW 6 9 3 5 - - 0.0
29/08:30am 4.8 3.6 4.7 99 0.0 CALM 0 2 0 1 - - 0.0
29/08:00am 2.9 1.4 2.8 99 0.0 CALM 0 0 0 0 - - 0.0
29/07:30am 1.8 -1.1 1.5 98 0.1 S 6 7 3 4 - - 0.0
29/07:00am 2.1 0.4 1.8 98 0.1 CALM 0 2 0 1 - - 0.0
29/06:30am 2.6 1.0 2.5 99 0.0 CALM 0 0 0 0 - - 0.0
29/06:00am 2.6 0.3 2.5 99 0.0 S 4 6 2 3 - - 0.0
29/05:30am 2.3 0.7 2.2 99 0.0 CALM 0 0 0 0 - - 0.0
29/05:00am 1.6 -0.2 1.5 99 0.0 CALM 0 0 0 0 - - 0.0
29/04:30am 1.6 -0.2 1.5 99 0.0 CALM 0 0 0 0 - - 0.0
29/04:00am 1.7 -1.2 1.6 99 0.0 S 6 9 3 5 - - 0.0
29/03:30am 1.9 -0.2 1.8 99 0.0 SSW 2 7 1 4 - - 0.0
29/03:00am 1.5 -0.3 1.2 98 0.1 CALM 0 0 0 0 - - 0.0
29/02:30am 1.7 -0.1 1.4 98 0.1 CALM 0 0 0 0 - - 0.0
29/02:00am 1.6 -0.2 1.2 97 0.2 CALM 0 0 0 0 - - 0.0
29/01:30am 1.9 0.1 1.3 96 0.2 CALM 0 0 0 0 - - 0.0
29/01:00am 2.1 0.3 1.4 95 0.3 CALM 0 0 0 0 - - 0.0
29/12:30am 2.2 0.4 1.2 93 0.4 CALM 0 6 0 3 - - 0.0
29/12:00am 2.8 1.1 1.6 92 0.5 CALM 0 0 0 0 - - 0.0
 
Date/Time
EST
Temp
°C
App
Temp
°C
Dew
Point
°C
Rel
Hum
%
Delta-T
°C
Wind Press
QNH
hPa
Press
MSL
hPa
Rain since
9am
mm
Dir  Spd
km/h
Gust
km/h
Spd
kts
Gust
kts
28/11:30pm 3.1 0.6 1.8 91 0.5 SSW 4 7 2 4 - - 0.0
28/11:00pm 3.5 1.9 2.3 92 0.5 CALM 0 0 0 0 - - 0.0
28/10:30pm 3.4 1.7 1.9 90 0.6 CALM 0 6 0 3 - - 0.0
28/10:00pm 4.1 2.3 1.1 81 1.2 CALM 0 0 0 0 - - 0.0
28/09:30pm 5.7 2.8 2.4 79 1.4 SSW 7 9 4 5 - - 0.0
28/09:00pm 6.3 3.5 3.3 81 1.3 SSW 7 11 4 6 - - 0.0
28/08:30pm 5.2 2.3 2.6 83 1.1 SSW 7 13 4 7 - - 0.0
28/08:00pm 5.6 2.9 2.6 81 1.2 SSW 6 7 3 4 - - 0.0
28/07:30pm 6.1 3.2 2.6 78 1.4 SSW 7 9 4 5 - - 0.0
28/07:00pm 7.7 5.0 2.8 71 2.1 SSW 6 7 3 4 - - 0.0
28/06:30pm 6.9 4.2 2.6 74 1.8 SW 6 9 3 5 - - 0.0
28/06:00pm 7.9 5.5 2.2 67 2.4 W 4 6 2 3 - - 0.0
28/05:30pm 9.7 7.6 1.6 57 3.4 W 2 6 1 3 - - 0.0
28/05:00pm 12.0 9.1 1.3 48 4.5 WNW 6 9 3 5 - - 0.0
28/04:30pm 13.8 10.3 1.1 42 5.5 WSW 9 15 5 8 - - 0.0
28/04:00pm 14.9 11.0 1.1 39 6.0 WSW 11 17 6 9 - - 0.0
28/03:30pm 15.7 11.7 0.7 36 6.5 WSW 11 20 6 11 - - 0.0
28/03:00pm 16.5 13.1 1.8 37 6.6 SW 9 13 5 7 - - 0.0
28/02:30pm 15.8 11.8 0.4 35 6.6 WSW 11 19 6 10 - - 0.0
28/02:00pm 16.1 11.9 1.4 37 6.5 SSW 13 24 7 13 - - 0.0
28/01:30pm 15.5 11.2 0.9 37 6.4 SW 13 20 7 11 - - 0.0
28/01:00pm 15.4 11.4 0.8 37 6.3 WSW 11 19 6 10 - - 0.0
28/12:30pm 15.0 10.3 0.8 38 6.1 SW 15 26 8 14 - - 0.0
28/12:00pm 14.7 10.2 1.9 42 5.6 SW 15 26 8 14 - - 0.0
28/11:30am 14.2 9.3 1.8 43 5.4 SW 17 28 9 15 - - 0.0
28/11:00am 13.8 9.2 1.5 43 5.3 SW 15 26 8 14 - - 0.0
28/10:30am 13.3 9.1 1.9 46 5.0 SSW 13 20 7 11 - - 0.0
28/10:00am 12.3 8.7 3.0 53 4.1 SW 11 19 6 10 - - 0.0
28/09:30am 10.6 7.0 2.9 59 3.3 SW 11 17 6 9 - - 0.0
28/09:00am 9.1 5.8 2.4 63 2.8 S 9 13 5 7 - - 0.8
28/08:30am 7.5 4.5 2.2 69 2.2 SSW 7 13 4 7 - - 0.8
28/08:00am 6.2 2.8 1.7 73 1.8 SSW 9 15 5 8 - - 0.8
28/07:30am 4.6 1.5 1.6 81 1.2 SSW 7 11 4 6 - - 0.8
28/07:00am 4.0 0.8 0.9 80 1.2 SSW 7 11 4 6 - - 0.8
28/06:30am 5.1 1.6 1.0 75 1.6 SSW 9 15 5 8 - - 0.8
28/06:00am 5.8 1.9 1.2 72 1.8 SSW 11 15 6 8 - - 0.8
28/05:30am 5.7 2.2 1.2 73 1.8 SSW 9 15 5 8 - - 0.8
28/05:00am 5.7 1.8 1.4 74 1.7 SW 11 17 6 9 - - 0.8
28/04:30am 5.6 2.5 1.2 73 1.7 SW 7 9 4 5 - - 0.8
28/04:00am 6.8 2.9 1.3 68 2.2 SW 11 15 6 8 - - 0.8
28/03:30am 5.8 2.3 1.5 74 1.7 SW 9 13 5 7 - - 0.8
28/03:00am 5.8 2.3 1.2 72 1.8 SW 9 13 5 7 - - 0.8
28/02:30am 6.9 3.4 1.2 67 2.3 SW 9 11 5 6 - - 0.8
28/02:00am 7.4 3.9 1.0 64 2.6 SW 9 15 5 8 - - 0.8
28/01:30am 7.1 3.6 1.0 65 2.5 SSW 9 13 5 7 - - 0.8
28/01:00am 7.2 3.7 1.1 65 2.5 SW 9 13 5 7 - - 0.8
28/12:30am 7.7 3.8 1.3 64 2.6 SW 11 15 6 8 - - 0.8
28/12:00am 8.2 4.8 1.6 63 2.7 SW 9 15 5 8 - - 0.8
 
Date/Time
EST
Temp
°C
App
Temp
°C
Dew
Point
°C
Rel
Hum
%
Delta-T
°C
Wind Press
QNH
hPa
Press
MSL
hPa
Rain since
9am
mm
Dir  Spd
km/h
Gust
km/h
Spd
kts
Gust
kts
27/11:30pm 8.2 4.4 1.8 64 2.7 SW 11 15 6 8 - - 0.8
27/11:00pm 8.8 5.4 1.9 62 2.9 SW 9 15 5 8 - - 0.8
27/10:30pm 9.1 5.4 2.2 62 2.9 SSW 11 15 6 8 - - 0.8
27/10:00pm 9.2 5.5 2.3 62 2.9 SW 11 17 6 9 - - 0.8
27/09:30pm 9.1 5.8 2.4 63 2.8 SSW 9 19 5 10 - - 0.8
27/09:00pm 8.8 5.9 2.6 65 2.6 SSW 7 13 4 7 - - 0.8
27/08:30pm 7.8 5.1 2.9 71 2.1 SW 6 9 3 5 - - 0.8
27/08:00pm 8.5 5.5 2.3 65 2.6 SSW 7 9 4 5 - - 0.8
27/07:30pm 9.3 6.4 2.6 63 2.9 SSW 7 13 4 7 - - 0.8
27/07:00pm 9.4 6.2 2.9 64 2.8 SSW 9 13 5 7 - - 0.8
27/06:30pm 9.2 6.6 3.2 66 2.6 SSW 6 7 3 4 - - 0.8
27/06:00pm 9.4 6.8 3.4 66 2.6 SW 6 9 3 5 - - 0.8
27/05:30pm 9.6 6.9 3.6 66 2.6 SW 7 11 4 6 - - 0.8
27/05:00pm 9.9 7.2 3.6 65 2.8 SSW 7 13 4 7 - - 0.8
27/04:30pm 10.2 7.1 3.5 63 2.9 SW 9 15 5 8 - - 0.8
27/04:00pm 10.6 7.2 3.9 63 3.0 SW 11 17 6 9 - - 0.8
27/03:30pm 10.4 7.8 4.1 65 2.8 WSW 7 17 4 9 - - 0.8
27/03:00pm 10.8 7.9 4.5 65 2.8 SW 9 17 5 9 - - 0.8
27/02:30pm 11.5 8.5 4.3 61 3.3 SW 9 13 5 7 - - 0.6
27/02:00pm 11.7 9.5 5.1 64 3.0 S 6 9 3 5 - - 0.6
27/01:30pm 11.1 8.7 5.4 68 2.6 S 7 17 4 9 - - 0.6
27/01:00pm 11.7 8.9 5.3 65 3.0 SSW 9 13 5 7 - - 0.6
27/12:30pm 11.3 8.5 5.0 65 2.9 W 9 15 5 8 - - 0.6
27/12:00pm 10.9 7.7 5.2 68 2.6 WSW 11 15 6 8 - - 0.6
27/11:30am 10.2 7.5 5.6 73 2.1 WSW 9 19 5 10 - - 0.6
27/11:00am 8.8 6.5 5.7 81 1.4 W 7 15 4 8 - - 0.6
27/10:30am 7.8 5.7 5.8 87 0.9 W 6 7 3 4 - - 0.6
27/10:00am 7.4 6.5 5.9 90 0.7 CALM 0 0 0 0 - - 0.6
27/09:30am 7.1 5.0 5.6 90 0.7 W 6 7 3 4 - - 0.4
27/09:00am 7.0 5.6 5.5 90 0.7 NW 2 9 1 5 - - 0.6
27/08:30am 7.1 4.9 5.3 88 0.8 W 6 7 3 4 - - 0.4
27/08:00am 7.3 4.8 4.6 83 1.2 SW 7 13 4 7 - - 0.0
27/07:30am 7.3 4.4 4.6 83 1.2 SW 9 13 5 7 - - 0.0
27/07:00am 7.2 4.9 4.7 84 1.1 SSW 6 9 3 5 - - 0.0
27/06:30am 7.8 5.4 4.4 79 1.5 WSW 6 11 3 6 - - 0.0
27/06:00am 7.7 5.3 4.1 78 1.6 WSW 6 11 3 6 - - 0.0
27/05:30am 7.0 5.1 4.7 85 1.0 WSW 4 7 2 4 - - 0.0
27/05:00am 7.2 5.2 4.2 81 1.3 WSW 4 7 2 4 - - 0.0
27/04:30am 7.7 5.1 4.3 79 1.5 SSW 7 9 4 5 - - 0.0
27/04:00am 7.3 5.3 4.4 82 1.3 SSW 4 7 2 4 - - 0.0
27/03:30am 7.4 4.8 4.2 80 1.4 SSW 7 11 4 6 - - 0.0
27/03:00am 7.0 4.4 4.3 83 1.2 SSW 7 11 4 6 - - 0.0
27/02:30am 6.1 4.9 4.7 91 0.6 CALM 0 0 0 0 - - 0.0
27/02:00am 6.1 4.9 4.7 91 0.6 CALM 0 0 0 0 - - 0.0
27/01:30am 5.9 4.6 4.2 89 0.7 CALM 0 0 0 0 - - 0.0
27/01:00am 6.1 4.8 4.3 88 0.8 CALM 0 0 0 0 - - 0.0

Latest Capital City Observations: Canberra | Sydney | Melbourne | Brisbane | Adelaide | Perth | Hobart | Darwin

Other Formats:

Comma delimited format used in spreadsheet applications
http://www.bom.gov.au/fwo/IDN60901/IDN60901.94757.axf

JavaScript Object Notation format (JSON) in row-major order
http://www.bom.gov.au/fwo/IDN60901/IDN60901.94757.json